sensor_id;sensor_type;location;lat;lon;timestamp;temperature;humidity
12700;DHT22;6414;49.570;6.060;2022-09-03T00:00:04;17.70;99.40
12700;DHT22;6414;49.570;6.060;2022-09-03T00:02:08;17.60;99.90
12700;DHT22;6414;49.570;6.060;2022-09-03T00:14:13;17.20;99.90
12700;DHT22;6414;49.570;6.060;2022-09-03T00:17:01;17.10;99.90
12700;DHT22;6414;49.570;6.060;2022-09-03T00:19:52;17.10;99.90
12700;DHT22;6414;49.570;6.060;2022-09-03T00:22:37;17.10;99.90
12700;DHT22;6414;49.570;6.060;2022-09-03T00:25:28;17.10;99.90
12700;DHT22;6414;49.570;6.060;2022-09-03T00:28:13;17.20;99.90
12700;DHT22;6414;49.570;6.060;2022-09-03T00:34:01;17.10;99.90
12700;DHT22;6414;49.570;6.060;2022-09-03T00:36:45;17.20;99.90
12700;DHT22;6414;49.570;6.060;2022-09-03T00:39:30;17.30;99.90
12700;DHT22;6414;49.570;6.060;2022-09-03T00:42:43;17.40;99.90
12700;DHT22;6414;49.570;6.060;2022-09-03T00:45:40;17.40;99.90
12700;DHT22;6414;49.570;6.060;2022-09-03T00:48:25;17.50;99.90
12700;DHT22;6414;49.570;6.060;2022-09-03T00:51:20;17.50;99.90
12700;DHT22;6414;49.570;6.060;2022-09-03T00:54:18;17.50;99.90
12700;DHT22;6414;49.570;6.060;2022-09-03T00:57:22;17.40;99.90
12700;DHT22;6414;49.570;6.060;2022-09-03T01:00:11;17.50;99.90
12700;DHT22;6414;49.570;6.060;2022-09-03T01:03:05;17.50;99.90
12700;DHT22;6414;49.570;6.060;2022-09-03T01:11:55;17.60;97.10
12700;DHT22;6414;49.570;6.060;2022-09-03T01:20:22;17.60;99.90
12700;DHT22;6414;49.570;6.060;2022-09-03T01:32:47;17.60;99.90
12700;DHT22;6414;49.570;6.060;2022-09-03T01:35:43;17.50;99.90
12700;DHT22;6414;49.570;6.060;2022-09-03T01:38:46;17.40;99.90
12700;DHT22;6414;49.570;6.060;2022-09-03T01:41:29;17.50;99.90
12700;DHT22;6414;49.570;6.060;2022-09-03T01:48:00;17.40;99.90
12700;DHT22;6414;49.570;6.060;2022-09-03T01:50:52;17.20;99.90
12700;DHT22;6414;49.570;6.060;2022-09-03T01:54:19;17.10;99.90
12700;DHT22;6414;49.570;6.060;2022-09-03T02:00:02;16.90;99.90
12700;DHT22;6414;49.570;6.060;2022-09-03T02:02:46;16.80;99.90
12700;DHT22;6414;49.570;6.060;2022-09-03T02:05:31;16.80;99.90
12700;DHT22;6414;49.570;6.060;2022-09-03T02:08:16;16.70;99.90
12700;DHT22;6414;49.570;6.060;2022-09-03T02:11:02;16.80;99.90
12700;DHT22;6414;49.570;6.060;2022-09-03T02:13:48;16.80;99.90
12700;DHT22;6414;49.570;6.060;2022-09-03T02:16:32;16.80;99.90
12700;DHT22;6414;49.570;6.060;2022-09-03T02:19:17;16.80;99.90
12700;DHT22;6414;49.570;6.060;2022-09-03T02:22:02;16.80;99.90
12700;DHT22;6414;49.570;6.060;2022-09-03T02:24:47;16.80;99.90
12700;DHT22;6414;49.570;6.060;2022-09-03T02:27:36;16.80;99.90
12700;DHT22;6414;49.570;6.060;2022-09-03T02:30:18;16.80;99.90
12700;DHT22;6414;49.570;6.060;2022-09-03T02:33:03;16.80;99.90
12700;DHT22;6414;49.570;6.060;2022-09-03T02:35:48;16.80;99.90
12700;DHT22;6414;49.570;6.060;2022-09-03T02:38:33;16.80;99.90
12700;DHT22;6414;49.570;6.060;2022-09-03T02:41:18;16.70;99.90
12700;DHT22;6414;49.570;6.060;2022-09-03T02:44:13;16.70;99.90
12700;DHT22;6414;49.570;6.060;2022-09-03T02:47:01;16.70;99.90
12700;DHT22;6414;49.570;6.060;2022-09-03T02:49:48;16.70;99.90
12700;DHT22;6414;49.570;6.060;2022-09-03T02:52:33;16.70;99.90
12700;DHT22;6414;49.570;6.060;2022-09-03T02:55:19;16.80;99.90
12700;DHT22;6414;49.570;6.060;2022-09-03T02:58:04;16.70;99.90
12700;DHT22;6414;49.570;6.060;2022-09-03T03:00:52;16.60;99.90
12700;DHT22;6414;49.570;6.060;2022-09-03T03:03:37;16.70;99.90
12700;DHT22;6414;49.570;6.060;2022-09-03T03:06:22;16.60;99.90
12700;DHT22;6414;49.570;6.060;2022-09-03T03:09:07;16.60;99.90
12700;DHT22;6414;49.570;6.060;2022-09-03T03:11:52;16.70;99.90
12700;DHT22;6414;49.570;6.060;2022-09-03T03:14:38;16.70;99.90
12700;DHT22;6414;49.570;6.060;2022-09-03T03:17:23;16.70;99.90
12700;DHT22;6414;49.570;6.060;2022-09-03T03:20:08;16.60;99.90
12700;DHT22;6414;49.570;6.060;2022-09-03T03:22:53;16.70;99.90
12700;DHT22;6414;49.570;6.060;2022-09-03T03:25:38;16.70;99.90
12700;DHT22;6414;49.570;6.060;2022-09-03T03:28:23;16.70;99.90
12700;DHT22;6414;49.570;6.060;2022-09-03T03:31:12;16.70;99.90
12700;DHT22;6414;49.570;6.060;2022-09-03T03:34:00;16.70;99.90
12700;DHT22;6414;49.570;6.060;2022-09-03T03:36:45;16.70;99.90
12700;DHT22;6414;49.570;6.060;2022-09-03T03:39:30;16.70;99.90
12700;DHT22;6414;49.570;6.060;2022-09-03T03:42:15;16.70;99.90
12700;DHT22;6414;49.570;6.060;2022-09-03T03:45:00;16.70;99.90
12700;DHT22;6414;49.570;6.060;2022-09-03T03:47:45;16.70;99.90
12700;DHT22;6414;49.570;6.060;2022-09-03T03:50:30;16.70;99.90
12700;DHT22;6414;49.570;6.060;2022-09-03T03:53:15;16.80;99.90
12700;DHT22;6414;49.570;6.060;2022-09-03T03:56:02;16.80;99.90
12700;DHT22;6414;49.570;6.060;2022-09-03T03:58:46;16.70;99.90
12700;DHT22;6414;49.570;6.060;2022-09-03T04:01:31;16.70;99.90
12700;DHT22;6414;49.570;6.060;2022-09-03T04:04:16;16.80;99.90
12700;DHT22;6414;49.570;6.060;2022-09-03T04:07:01;16.80;99.90
12700;DHT22;6414;49.570;6.060;2022-09-03T04:09:46;16.80;99.90
12700;DHT22;6414;49.570;6.060;2022-09-03T04:12:32;16.70;99.90
12700;DHT22;6414;49.570;6.060;2022-09-03T04:15:22;16.60;99.90
12700;DHT22;6414;49.570;6.060;2022-09-03T04:18:07;16.50;99.90
12700;DHT22;6414;49.570;6.060;2022-09-03T04:20:52;16.50;99.90
12700;DHT22;6414;49.570;6.060;2022-09-03T04:23:39;16.50;99.90
12700;DHT22;6414;49.570;6.060;2022-09-03T04:26:29;16.30;99.90
12700;DHT22;6414;49.570;6.060;2022-09-03T04:29:16;16.30;99.90
12700;DHT22;6414;49.570;6.060;2022-09-03T04:32:01;16.20;99.90
12700;DHT22;6414;49.570;6.060;2022-09-03T04:35:04;16.30;99.90
12700;DHT22;6414;49.570;6.060;2022-09-03T04:37:49;16.30;99.90
12700;DHT22;6414;49.570;6.060;2022-09-03T04:40:35;16.30;99.90
12700;DHT22;6414;49.570;6.060;2022-09-03T04:43:20;16.30;99.90
12700;DHT22;6414;49.570;6.060;2022-09-03T04:46:05;16.30;99.90
12700;DHT22;6414;49.570;6.060;2022-09-03T04:48:51;16.30;99.90
12700;DHT22;6414;49.570;6.060;2022-09-03T04:51:35;16.30;99.90
12700;DHT22;6414;49.570;6.060;2022-09-03T04:54:20;16.30;99.90
12700;DHT22;6414;49.570;6.060;2022-09-03T04:57:05;16.30;99.90
12700;DHT22;6414;49.570;6.060;2022-09-03T04:59:50;16.30;99.90
12700;DHT22;6414;49.570;6.060;2022-09-03T05:02:35;16.30;99.90
12700;DHT22;6414;49.570;6.060;2022-09-03T05:05:20;16.20;99.90
12700;DHT22;6414;49.570;6.060;2022-09-03T05:08:05;16.30;99.90
12700;DHT22;6414;49.570;6.060;2022-09-03T05:10:56;16.30;99.90
12700;DHT22;6414;49.570;6.060;2022-09-03T05:13:36;16.20;99.90
12700;DHT22;6414;49.570;6.060;2022-09-03T05:16:21;16.20;99.90
12700;DHT22;6414;49.570;6.060;2022-09-03T05:19:06;16.20;99.90
12700;DHT22;6414;49.570;6.060;2022-09-03T05:21:51;16.30;99.90
12700;DHT22;6414;49.570;6.060;2022-09-03T05:24:36;16.30;99.90
12700;DHT22;6414;49.570;6.060;2022-09-03T05:27:21;16.30;99.90
12700;DHT22;6414;49.570;6.060;2022-09-03T05:30:06;16.30;99.90
12700;DHT22;6414;49.570;6.060;2022-09-03T05:32:51;16.40;99.90
12700;DHT22;6414;49.570;6.060;2022-09-03T05:35:36;16.40;99.90
12700;DHT22;6414;49.570;6.060;2022-09-03T05:38:22;16.50;99.90
12700;DHT22;6414;49.570;6.060;2022-09-03T05:41:08;16.50;99.90
12700;DHT22;6414;49.570;6.060;2022-09-03T05:43:53;16.50;99.90
12700;DHT22;6414;49.570;6.060;2022-09-03T05:46:40;16.50;99.90
12700;DHT22;6414;49.570;6.060;2022-09-03T05:49:25;16.60;99.90
12700;DHT22;6414;49.570;6.060;2022-09-03T05:52:10;16.50;99.90
12700;DHT22;6414;49.570;6.060;2022-09-03T05:54:55;16.50;99.90
12700;DHT22;6414;49.570;6.060;2022-09-03T05:57:41;16.40;99.90
12700;DHT22;6414;49.570;6.060;2022-09-03T06:00:26;16.50;99.90
12700;DHT22;6414;49.570;6.060;2022-09-03T06:03:11;16.40;99.90
12700;DHT22;6414;49.570;6.060;2022-09-03T06:05:56;16.40;99.90
12700;DHT22;6414;49.570;6.060;2022-09-03T06:08:41;16.50;99.90
12700;DHT22;6414;49.570;6.060;2022-09-03T06:11:26;16.50;99.90
12700;DHT22;6414;49.570;6.060;2022-09-03T06:14:14;16.50;99.90
12700;DHT22;6414;49.570;6.060;2022-09-03T06:16:59;16.60;99.90
12700;DHT22;6414;49.570;6.060;2022-09-03T06:19:44;16.60;99.90
12700;DHT22;6414;49.570;6.060;2022-09-03T06:22:29;16.60;99.90
12700;DHT22;6414;49.570;6.060;2022-09-03T06:25:14;16.70;99.90
12700;DHT22;6414;49.570;6.060;2022-09-03T06:27:59;16.80;99.90
12700;DHT22;6414;49.570;6.060;2022-09-03T06:30:44;16.80;99.90
12700;DHT22;6414;49.570;6.060;2022-09-03T06:33:30;16.80;99.90
12700;DHT22;6414;49.570;6.060;2022-09-03T06:36:18;17.00;99.90
12700;DHT22;6414;49.570;6.060;2022-09-03T06:39:03;17.20;99.90
12700;DHT22;6414;49.570;6.060;2022-09-03T06:41:48;17.20;99.90
12700;DHT22;6414;49.570;6.060;2022-09-03T06:44:33;17.30;99.90
12700;DHT22;6414;49.570;6.060;2022-09-03T06:47:19;17.20;99.90
12700;DHT22;6414;49.570;6.060;2022-09-03T06:50:04;17.40;99.90
12700;DHT22;6414;49.570;6.060;2022-09-03T06:52:52;17.40;99.90
12700;DHT22;6414;49.570;6.060;2022-09-03T06:55:37;17.40;99.90
12700;DHT22;6414;49.570;6.060;2022-09-03T06:58:23;17.40;99.90
12700;DHT22;6414;49.570;6.060;2022-09-03T07:03:56;17.30;99.90
12700;DHT22;6414;49.570;6.060;2022-09-03T07:06:41;17.30;99.90
12700;DHT22;6414;49.570;6.060;2022-09-03T07:09:26;17.50;99.90
12700;DHT22;6414;49.570;6.060;2022-09-03T07:12:14;17.30;99.90
12700;DHT22;6414;49.570;6.060;2022-09-03T07:14:59;17.30;99.90
12700;DHT22;6414;49.570;6.060;2022-09-03T07:17:50;17.30;99.90
12700;DHT22;6414;49.570;6.060;2022-09-03T07:20:32;17.40;99.90
12700;DHT22;6414;49.570;6.060;2022-09-03T07:23:17;17.50;99.90
12700;DHT22;6414;49.570;6.060;2022-09-03T07:26:03;17.70;99.90
12700;DHT22;6414;49.570;6.060;2022-09-03T07:28:48;17.60;99.90
12700;DHT22;6414;49.570;6.060;2022-09-03T07:31:37;17.80;99.90
12700;DHT22;6414;49.570;6.060;2022-09-03T07:34:21;18.00;99.90
12700;DHT22;6414;49.570;6.060;2022-09-03T07:37:09;17.80;99.90
12700;DHT22;6414;49.570;6.060;2022-09-03T07:39:54;17.70;99.90
12700;DHT22;6414;49.570;6.060;2022-09-03T07:42:39;17.80;99.90
12700;DHT22;6414;49.570;6.060;2022-09-03T07:45:25;17.70;99.90
12700;DHT22;6414;49.570;6.060;2022-09-03T07:48:10;17.70;99.90
12700;DHT22;6414;49.570;6.060;2022-09-03T07:50:58;17.80;99.90
12700;DHT22;6414;49.570;6.060;2022-09-03T07:53:44;17.80;99.90
12700;DHT22;6414;49.570;6.060;2022-09-03T07:56:28;17.70;99.90
12700;DHT22;6414;49.570;6.060;2022-09-03T07:59:13;17.70;99.90
12700;DHT22;6414;49.570;6.060;2022-09-03T08:01:58;17.60;99.90
12700;DHT22;6414;49.570;6.060;2022-09-03T08:04:44;17.50;99.90
12700;DHT22;6414;49.570;6.060;2022-09-03T08:07:29;17.60;99.90
12700;DHT22;6414;49.570;6.060;2022-09-03T08:10:14;17.80;99.90
12700;DHT22;6414;49.570;6.060;2022-09-03T08:12:59;17.90;99.90
12700;DHT22;6414;49.570;6.060;2022-09-03T08:15:54;18.00;99.90
12700;DHT22;6414;49.570;6.060;2022-09-03T08:18:38;18.00;99.90
12700;DHT22;6414;49.570;6.060;2022-09-03T08:21:24;17.90;99.90
12700;DHT22;6414;49.570;6.060;2022-09-03T08:24:13;18.20;99.90
12700;DHT22;6414;49.570;6.060;2022-09-03T08:26:54;18.30;99.90
12700;DHT22;6414;49.570;6.060;2022-09-03T08:29:40;18.60;99.90
12700;DHT22;6414;49.570;6.060;2022-09-03T08:32:25;18.60;99.90
12700;DHT22;6414;49.570;6.060;2022-09-03T08:35:10;18.60;99.90
12700;DHT22;6414;49.570;6.060;2022-09-03T08:37:55;18.60;99.90
12700;DHT22;6414;49.570;6.060;2022-09-03T08:40:40;18.80;99.90
12700;DHT22;6414;49.570;6.060;2022-09-03T08:43:25;18.90;99.90
12700;DHT22;6414;49.570;6.060;2022-09-03T08:46:10;19.20;99.90
12700;DHT22;6414;49.570;6.060;2022-09-03T08:48:55;19.50;99.90
12700;DHT22;6414;49.570;6.060;2022-09-03T08:51:41;19.50;99.90
12700;DHT22;6414;49.570;6.060;2022-09-03T08:54:26;19.50;99.90
12700;DHT22;6414;49.570;6.060;2022-09-03T08:57:11;19.60;99.90
12700;DHT22;6414;49.570;6.060;2022-09-03T08:59:56;19.70;99.90
12700;DHT22;6414;49.570;6.060;2022-09-03T09:05:49;19.70;99.90
12700;DHT22;6414;49.570;6.060;2022-09-03T09:11:30;19.90;99.90
12700;DHT22;6414;49.570;6.060;2022-09-03T09:14:32;19.90;99.90
12700;DHT22;6414;49.570;6.060;2022-09-03T09:20:14;20.10;99.90
12700;DHT22;6414;49.570;6.060;2022-09-03T09:23:00;20.20;99.90
12700;DHT22;6414;49.570;6.060;2022-09-03T09:25:48;20.20;99.90
12700;DHT22;6414;49.570;6.060;2022-09-03T09:28:34;20.20;99.90
12700;DHT22;6414;49.570;6.060;2022-09-03T09:31:18;20.50;99.90
12700;DHT22;6414;49.570;6.060;2022-09-03T09:34:04;20.70;99.90
12700;DHT22;6414;49.570;6.060;2022-09-03T09:36:53;20.90;99.90
12700;DHT22;6414;49.570;6.060;2022-09-03T09:39:37;20.70;99.90
12700;DHT22;6414;49.570;6.060;2022-09-03T09:42:22;20.70;99.90
12700;DHT22;6414;49.570;6.060;2022-09-03T09:45:08;20.70;99.90
12700;DHT22;6414;49.570;6.060;2022-09-03T09:47:53;20.50;99.90
12700;DHT22;6414;49.570;6.060;2022-09-03T09:50:38;20.50;99.90
12700;DHT22;6414;49.570;6.060;2022-09-03T09:53:27;20.60;99.90
12700;DHT22;6414;49.570;6.060;2022-09-03T09:56:19;20.50;99.90
12700;DHT22;6414;49.570;6.060;2022-09-03T09:59:07;20.50;99.90
12700;DHT22;6414;49.570;6.060;2022-09-03T10:02:01;20.50;99.90
12700;DHT22;6414;49.570;6.060;2022-09-03T10:04:36;20.50;99.90
12700;DHT22;6414;49.570;6.060;2022-09-03T10:07:25;20.70;99.90
12700;DHT22;6414;49.570;6.060;2022-09-03T10:13:05;20.80;99.90
12700;DHT22;6414;49.570;6.060;2022-09-03T10:15:57;20.80;99.90
12700;DHT22;6414;49.570;6.060;2022-09-03T10:18:44;20.70;99.90
12700;DHT22;6414;49.570;6.060;2022-09-03T10:21:48;20.70;99.90
12700;DHT22;6414;49.570;6.060;2022-09-03T10:24:46;20.80;99.90
12700;DHT22;6414;49.570;6.060;2022-09-03T10:27:16;21.10;99.90
12700;DHT22;6414;49.570;6.060;2022-09-03T10:30:01;21.40;99.90
12700;DHT22;6414;49.570;6.060;2022-09-03T10:33:08;21.80;99.90
12700;DHT22;6414;49.570;6.060;2022-09-03T10:35:56;22.30;99.90
12700;DHT22;6414;49.570;6.060;2022-09-03T10:38:38;22.00;99.90
12700;DHT22;6414;49.570;6.060;2022-09-03T10:41:40;21.90;99.90
12700;DHT22;6414;49.570;6.060;2022-09-03T10:44:36;21.90;99.90
12700;DHT22;6414;49.570;6.060;2022-09-03T10:47:36;21.70;99.90
12700;DHT22;6414;49.570;6.060;2022-09-03T10:50:21;21.40;99.90
12700;DHT22;6414;49.570;6.060;2022-09-03T10:56:21;21.70;99.90
12700;DHT22;6414;49.570;6.060;2022-09-03T10:59:23;22.10;99.90
12700;DHT22;6414;49.570;6.060;2022-09-03T11:05:20;22.30;99.90
12700;DHT22;6414;49.570;6.060;2022-09-03T11:08:15;22.10;99.90
12700;DHT22;6414;49.570;6.060;2022-09-03T11:11:08;22.20;99.90
12700;DHT22;6414;49.570;6.060;2022-09-03T11:14:07;21.90;99.90
12700;DHT22;6414;49.570;6.060;2022-09-03T11:16:53;21.80;99.90
12700;DHT22;6414;49.570;6.060;2022-09-03T11:19:47;22.30;99.90
12700;DHT22;6414;49.570;6.060;2022-09-03T11:22:30;22.30;99.90
12700;DHT22;6414;49.570;6.060;2022-09-03T11:25:17;22.10;99.90
12700;DHT22;6414;49.570;6.060;2022-09-03T11:28:13;21.80;99.90
12700;DHT22;6414;49.570;6.060;2022-09-03T11:33:45;21.60;99.90
12700;DHT22;6414;49.570;6.060;2022-09-03T11:36:37;21.60;99.90
12700;DHT22;6414;49.570;6.060;2022-09-03T11:39:25;21.60;99.90
12700;DHT22;6414;49.570;6.060;2022-09-03T11:42:11;21.60;99.90
12700;DHT22;6414;49.570;6.060;2022-09-03T11:48:00;21.50;99.90
12700;DHT22;6414;49.570;6.060;2022-09-03T11:50:52;21.30;99.90
12700;DHT22;6414;49.570;6.060;2022-09-03T11:53:36;21.30;99.90
12700;DHT22;6414;49.570;6.060;2022-09-03T11:56:21;21.30;99.90
12700;DHT22;6414;49.570;6.060;2022-09-03T12:02:01;21.00;99.90
12700;DHT22;6414;49.570;6.060;2022-09-03T12:08:17;19.70;99.90
12700;DHT22;6414;49.570;6.060;2022-09-03T12:11:23;18.60;99.90
12700;DHT22;6414;49.570;6.060;2022-09-03T12:20:10;17.80;99.90
12700;DHT22;6414;49.570;6.060;2022-09-03T12:22:49;18.10;99.90
12700;DHT22;6414;49.570;6.060;2022-09-03T12:25:34;18.20;99.90
12700;DHT22;6414;49.570;6.060;2022-09-03T12:28:23;18.30;99.90
12700;DHT22;6414;49.570;6.060;2022-09-03T12:34:11;18.40;99.90
12700;DHT22;6414;49.570;6.060;2022-09-03T12:36:56;18.50;99.90
12700;DHT22;6414;49.570;6.060;2022-09-03T12:39:48;18.80;99.90
12700;DHT22;6414;49.570;6.060;2022-09-03T12:42:27;18.80;99.90
12700;DHT22;6414;49.570;6.060;2022-09-03T12:45:12;18.80;99.90
12700;DHT22;6414;49.570;6.060;2022-09-03T12:47:56;18.90;99.90
12700;DHT22;6414;49.570;6.060;2022-09-03T12:50:42;19.00;99.90
12700;DHT22;6414;49.570;6.060;2022-09-03T12:53:27;18.90;99.90
12700;DHT22;6414;49.570;6.060;2022-09-03T12:56:12;18.90;99.90
12700;DHT22;6414;49.570;6.060;2022-09-03T12:58:59;19.00;99.90
12700;DHT22;6414;49.570;6.060;2022-09-03T13:01:44;19.00;99.90
12700;DHT22;6414;49.570;6.060;2022-09-03T13:04:31;19.20;99.90
12700;DHT22;6414;49.570;6.060;2022-09-03T13:07:34;19.20;99.90
12700;DHT22;6414;49.570;6.060;2022-09-03T13:10:24;19.30;99.90
12700;DHT22;6414;49.570;6.060;2022-09-03T13:13:26;19.50;99.90
12700;DHT22;6414;49.570;6.060;2022-09-03T13:22:23;19.30;99.90
12700;DHT22;6414;49.570;6.060;2022-09-03T13:25:32;19.40;99.90
12700;DHT22;6414;49.570;6.060;2022-09-03T13:28:30;19.60;99.90
12700;DHT22;6414;49.570;6.060;2022-09-03T13:34:25;19.90;99.90
12700;DHT22;6414;49.570;6.060;2022-09-03T13:37:29;20.00;99.90
12700;DHT22;6414;49.570;6.060;2022-09-03T13:40:15;20.00;99.90
12700;DHT22;6414;49.570;6.060;2022-09-03T13:43:26;19.70;99.90
12700;DHT22;6414;49.570;6.060;2022-09-03T13:46:01;19.60;99.90
12700;DHT22;6414;49.570;6.060;2022-09-03T13:48:44;19.50;99.90
12700;DHT22;6414;49.570;6.060;2022-09-03T13:52:03;19.70;99.90
12700;DHT22;6414;49.570;6.060;2022-09-03T13:54:41;19.80;99.90
12700;DHT22;6414;49.570;6.060;2022-09-03T13:57:46;19.70;99.90
12700;DHT22;6414;49.570;6.060;2022-09-03T14:00:42;19.80;99.90
12700;DHT22;6414;49.570;6.060;2022-09-03T14:03:43;20.00;99.90
12700;DHT22;6414;49.570;6.060;2022-09-03T14:06:43;20.20;99.90
12700;DHT22;6414;49.570;6.060;2022-09-03T14:09:34;20.10;99.90
12700;DHT22;6414;49.570;6.060;2022-09-03T14:12:28;20.00;99.90
12700;DHT22;6414;49.570;6.060;2022-09-03T14:15:27;20.10;99.90
12700;DHT22;6414;49.570;6.060;2022-09-03T14:21:21;20.30;99.90
12700;DHT22;6414;49.570;6.060;2022-09-03T14:24:13;20.30;99.90
12700;DHT22;6414;49.570;6.060;2022-09-03T14:26:56;20.60;99.90
12700;DHT22;6414;49.570;6.060;2022-09-03T14:29:49;20.70;99.90
12700;DHT22;6414;49.570;6.060;2022-09-03T14:32:53;20.70;99.90
12700;DHT22;6414;49.570;6.060;2022-09-03T14:35:47;20.70;99.90
12700;DHT22;6414;49.570;6.060;2022-09-03T14:41:52;21.00;99.90
12700;DHT22;6414;49.570;6.060;2022-09-03T14:53:46;21.10;99.90
12700;DHT22;6414;49.570;6.060;2022-09-03T15:00:06;21.00;99.90
12700;DHT22;6414;49.570;6.060;2022-09-03T15:09:14;21.20;99.90
12700;DHT22;6414;49.570;6.060;2022-09-03T15:11:56;21.50;99.90
12700;DHT22;6414;49.570;6.060;2022-09-03T15:15:04;21.20;99.90
12700;DHT22;6414;49.570;6.060;2022-09-03T15:24:00;21.00;99.90
12700;DHT22;6414;49.570;6.060;2022-09-03T15:32:51;21.00;99.90
12700;DHT22;6414;49.570;6.060;2022-09-03T15:35:43;20.80;99.90
12700;DHT22;6414;49.570;6.060;2022-09-03T15:41:32;20.80;99.90
12700;DHT22;6414;49.570;6.060;2022-09-03T15:44:15;20.80;99.90
12700;DHT22;6414;49.570;6.060;2022-09-03T15:49:53;21.10;99.90
12700;DHT22;6414;49.570;6.060;2022-09-03T15:52:38;21.20;99.90
12700;DHT22;6414;49.570;6.060;2022-09-03T15:58:30;21.00;99.90
12700;DHT22;6414;49.570;6.060;2022-09-03T16:01:31;21.00;99.90
12700;DHT22;6414;49.570;6.060;2022-09-03T16:08:02;20.90;99.90
12700;DHT22;6414;49.570;6.060;2022-09-03T16:10:08;21.10;99.90
12700;DHT22;6414;49.570;6.060;2022-09-03T16:13:29;21.20;99.90
12700;DHT22;6414;49.570;6.060;2022-09-03T16:16:10;21.20;99.90
12700;DHT22;6414;49.570;6.060;2022-09-03T16:19:04;21.20;99.90
12700;DHT22;6414;49.570;6.060;2022-09-03T16:22:21;21.20;99.90
12700;DHT22;6414;49.570;6.060;2022-09-03T16:24:58;21.00;99.90
12700;DHT22;6414;49.570;6.060;2022-09-03T16:27:41;20.90;99.90
12700;DHT22;6414;49.570;6.060;2022-09-03T16:30:32;20.60;99.90
12700;DHT22;6414;49.570;6.060;2022-09-03T16:36:24;20.40;99.90
12700;DHT22;6414;49.570;6.060;2022-09-03T16:39:15;20.30;99.90
12700;DHT22;6414;49.570;6.060;2022-09-03T16:42:19;20.30;99.90
12700;DHT22;6414;49.570;6.060;2022-09-03T16:51:20;20.10;99.90
12700;DHT22;6414;49.570;6.060;2022-09-03T16:54:16;20.10;99.90
12700;DHT22;6414;49.570;6.060;2022-09-03T17:03:18;20.00;99.90
12700;DHT22;6414;49.570;6.060;2022-09-03T17:09:12;19.90;99.90
12700;DHT22;6414;49.570;6.060;2022-09-03T17:11:56;19.80;99.90
12700;DHT22;6414;49.570;6.060;2022-09-03T17:30:07;19.30;99.90
12700;DHT22;6414;49.570;6.060;2022-09-03T17:32:57;19.20;99.90
12700;DHT22;6414;49.570;6.060;2022-09-03T17:36:05;19.20;99.90
12700;DHT22;6414;49.570;6.060;2022-09-03T17:41:45;19.10;99.90
12700;DHT22;6414;49.570;6.060;2022-09-03T17:44:58;19.10;99.90
12700;DHT22;6414;49.570;6.060;2022-09-03T17:48:10;19.10;99.90
12700;DHT22;6414;49.570;6.060;2022-09-03T17:50:56;19.00;99.90
12700;DHT22;6414;49.570;6.060;2022-09-03T17:53:44;19.00;99.90
12700;DHT22;6414;49.570;6.060;2022-09-03T17:57:11;19.00;99.90
12700;DHT22;6414;49.570;6.060;2022-09-03T18:05:28;18.90;99.90
12700;DHT22;6414;49.570;6.060;2022-09-03T18:14:22;18.80;99.90
12700;DHT22;6414;49.570;6.060;2022-09-03T18:17:30;18.80;99.90
12700;DHT22;6414;49.570;6.060;2022-09-03T18:20:13;18.70;99.90
12700;DHT22;6414;49.570;6.060;2022-09-03T18:23:20;18.70;99.90
12700;DHT22;6414;49.570;6.060;2022-09-03T18:26:23;18.70;99.90
12700;DHT22;6414;49.570;6.060;2022-09-03T18:29:30;18.60;99.90
12700;DHT22;6414;49.570;6.060;2022-09-03T18:32:31;18.70;99.90
12700;DHT22;6414;49.570;6.060;2022-09-03T18:35:34;18.60;99.90
12700;DHT22;6414;49.570;6.060;2022-09-03T18:38:37;18.60;99.90
12700;DHT22;6414;49.570;6.060;2022-09-03T18:45:00;18.40;99.90
12700;DHT22;6414;49.570;6.060;2022-09-03T18:48:10;18.40;99.90
12700;DHT22;6414;49.570;6.060;2022-09-03T19:01:12;18.10;99.90
12700;DHT22;6414;49.570;6.060;2022-09-03T19:04:18;18.00;99.90
12700;DHT22;6414;49.570;6.060;2022-09-03T19:07:25;18.10;99.90
12700;DHT22;6414;49.570;6.060;2022-09-03T19:10:27;18.00;99.90
12700;DHT22;6414;49.570;6.060;2022-09-03T19:13:35;18.00;99.90
12700;DHT22;6414;49.570;6.060;2022-09-03T19:16:42;18.00;99.90
12700;DHT22;6414;49.570;6.060;2022-09-03T19:19:56;18.10;99.90
12700;DHT22;6414;49.570;6.060;2022-09-03T19:22:58;18.10;99.90
12700;DHT22;6414;49.570;6.060;2022-09-03T19:35:57;17.80;99.90
12700;DHT22;6414;49.570;6.060;2022-09-03T19:42:20;17.70;99.90
12700;DHT22;6414;49.570;6.060;2022-09-03T19:51:54;17.60;99.90
12700;DHT22;6414;49.570;6.060;2022-09-03T19:54:55;17.50;99.90
12700;DHT22;6414;49.570;6.060;2022-09-03T19:57:58;17.40;99.90
12700;DHT22;6414;49.570;6.060;2022-09-03T20:01:00;17.20;99.90
12700;DHT22;6414;49.570;6.060;2022-09-03T20:04:13;17.20;99.90
12700;DHT22;6414;49.570;6.060;2022-09-03T20:07:13;17.10;99.90
12700;DHT22;6414;49.570;6.060;2022-09-03T20:10:16;17.20;99.90
12700;DHT22;6414;49.570;6.060;2022-09-03T20:13:08;17.10;99.90
12700;DHT22;6414;49.570;6.060;2022-09-03T20:16:08;17.10;99.90
12700;DHT22;6414;49.570;6.060;2022-09-03T20:19:02;17.10;99.90
12700;DHT22;6414;49.570;6.060;2022-09-03T20:22:05;17.00;99.90
12700;DHT22;6414;49.570;6.060;2022-09-03T20:24:53;16.90;99.90
12700;DHT22;6414;49.570;6.060;2022-09-03T20:33:40;16.90;99.90
12700;DHT22;6414;49.570;6.060;2022-09-03T20:36:55;16.80;99.90
12700;DHT22;6414;49.570;6.060;2022-09-03T20:49:18;16.60;99.90
12700;DHT22;6414;49.570;6.060;2022-09-03T21:05:20;16.60;99.90
12700;DHT22;6414;49.570;6.060;2022-09-03T21:08:26;16.50;99.90
12700;DHT22;6414;49.570;6.060;2022-09-03T21:14:49;16.40;99.90
12700;DHT22;6414;49.570;6.060;2022-09-03T21:17:48;16.30;99.90
12700;DHT22;6414;49.570;6.060;2022-09-03T21:20:54;16.30;99.90
12700;DHT22;6414;49.570;6.060;2022-09-03T21:23:39;16.30;99.90
12700;DHT22;6414;49.570;6.060;2022-09-03T21:26:25;16.30;99.90
12700;DHT22;6414;49.570;6.060;2022-09-03T21:32:16;16.20;99.90
12700;DHT22;6414;49.570;6.060;2022-09-03T21:38:03;16.30;99.90
12700;DHT22;6414;49.570;6.060;2022-09-03T21:40:57;16.30;99.90
12700;DHT22;6414;49.570;6.060;2022-09-03T21:43:55;16.30;99.90
12700;DHT22;6414;49.570;6.060;2022-09-03T21:46:39;16.20;99.90
12700;DHT22;6414;49.570;6.060;2022-09-03T21:49:24;16.20;99.90
12700;DHT22;6414;49.570;6.060;2022-09-03T21:52:09;16.10;99.90
12700;DHT22;6414;49.570;6.060;2022-09-03T21:54:52;16.20;99.90
12700;DHT22;6414;49.570;6.060;2022-09-03T21:57:44;16.10;99.90
12700;DHT22;6414;49.570;6.060;2022-09-03T22:00:26;16.00;99.90
12700;DHT22;6414;49.570;6.060;2022-09-03T22:03:11;15.90;99.90
12700;DHT22;6414;49.570;6.060;2022-09-03T22:05:58;15.90;99.90
12700;DHT22;6414;49.570;6.060;2022-09-03T22:09:00;15.90;99.90
12700;DHT22;6414;49.570;6.060;2022-09-03T22:11:46;15.80;99.90
12700;DHT22;6414;49.570;6.060;2022-09-03T22:14:31;15.70;99.90
12700;DHT22;6414;49.570;6.060;2022-09-03T22:20:18;15.70;99.90
12700;DHT22;6414;49.570;6.060;2022-09-03T22:23:09;15.60;99.90
12700;DHT22;6414;49.570;6.060;2022-09-03T22:25:58;15.50;99.90
12700;DHT22;6414;49.570;6.060;2022-09-03T22:28:43;15.60;99.90
12700;DHT22;6414;49.570;6.060;2022-09-03T22:31:45;15.50;99.90